sensor_id;sensor_type;location;lat;lon;timestamp;temperature;humidity
7936;DHT22;4013;49.744;8.118;2023-05-14T00:02:07;11.20;99.90
7936;DHT22;4013;49.744;8.118;2023-05-14T00:04:34;11.30;99.90
7936;DHT22;4013;49.744;8.118;2023-05-14T00:07:01;11.30;99.90
7936;DHT22;4013;49.744;8.118;2023-05-14T00:09:28;11.30;99.90
7936;DHT22;4013;49.744;8.118;2023-05-14T00:11:57;11.40;99.90
7936;DHT22;4013;49.744;8.118;2023-05-14T00:14:24;11.30;99.90
7936;DHT22;4013;49.744;8.118;2023-05-14T00:16:51;11.20;99.90
7936;DHT22;4013;49.744;8.118;2023-05-14T00:19:17;11.10;99.90
7936;DHT22;4013;49.744;8.118;2023-05-14T00:21:46;11.20;99.90
7936;DHT22;4013;49.744;8.118;2023-05-14T00:24:13;11.20;99.90
7936;DHT22;4013;49.744;8.118;2023-05-14T00:26:40;11.20;99.90
7936;DHT22;4013;49.744;8.118;2023-05-14T00:29:09;11.10;99.90
7936;DHT22;4013;49.744;8.118;2023-05-14T00:31:36;11.20;99.90
7936;DHT22;4013;49.744;8.118;2023-05-14T00:34:02;11.30;99.90
7936;DHT22;4013;49.744;8.118;2023-05-14T00:36:30;11.30;99.90
7936;DHT22;4013;49.744;8.118;2023-05-14T00:38:57;11.30;99.90
7936;DHT22;4013;49.744;8.118;2023-05-14T00:41:24;11.30;99.90
7936;DHT22;4013;49.744;8.118;2023-05-14T00:43:51;11.30;99.90
7936;DHT22;4013;49.744;8.118;2023-05-14T00:46:19;11.20;99.90
7936;DHT22;4013;49.744;8.118;2023-05-14T00:48:46;11.00;99.90
7936;DHT22;4013;49.744;8.118;2023-05-14T00:51:14;10.90;99.90
7936;DHT22;4013;49.744;8.118;2023-05-14T00:53:41;10.80;99.90
7936;DHT22;4013;49.744;8.118;2023-05-14T00:56:09;10.90;99.90
7936;DHT22;4013;49.744;8.118;2023-05-14T00:58:36;11.00;99.90
7936;DHT22;4013;49.744;8.118;2023-05-14T01:01:03;11.00;99.90
7936;DHT22;4013;49.744;8.118;2023-05-14T01:03:32;11.00;99.90
7936;DHT22;4013;49.744;8.118;2023-05-14T01:06:08;10.90;99.90
7936;DHT22;4013;49.744;8.118;2023-05-14T01:08:45;10.80;99.90
7936;DHT22;4013;49.744;8.118;2023-05-14T01:11:20;10.80;99.90
7936;DHT22;4013;49.744;8.118;2023-05-14T01:13:54;10.70;99.90
7936;DHT22;4013;49.744;8.118;2023-05-14T01:16:26;10.60;99.90
7936;DHT22;4013;49.744;8.118;2023-05-14T01:18:56;10.70;99.90
7936;DHT22;4013;49.744;8.118;2023-05-14T01:21:34;10.80;99.90
7936;DHT22;4013;49.744;8.118;2023-05-14T01:24:01;10.70;99.90
7936;DHT22;4013;49.744;8.118;2023-05-14T01:26:29;10.60;99.90
7936;DHT22;4013;49.744;8.118;2023-05-14T01:29:00;10.50;99.90
7936;DHT22;4013;49.744;8.118;2023-05-14T01:31:30;10.50;99.90
7936;DHT22;4013;49.744;8.118;2023-05-14T01:34:00;10.60;99.90
7936;DHT22;4013;49.744;8.118;2023-05-14T01:36:30;10.60;99.90
7936;DHT22;4013;49.744;8.118;2023-05-14T01:38:59;10.60;99.90
7936;DHT22;4013;49.744;8.118;2023-05-14T01:41:28;10.50;99.90
7936;DHT22;4013;49.744;8.118;2023-05-14T01:43:57;10.50;99.90
7936;DHT22;4013;49.744;8.118;2023-05-14T01:46:24;10.50;99.90
7936;DHT22;4013;49.744;8.118;2023-05-14T01:48:51;10.50;99.90
7936;DHT22;4013;49.744;8.118;2023-05-14T01:51:18;10.50;99.90
7936;DHT22;4013;49.744;8.118;2023-05-14T01:53:46;10.50;99.90
7936;DHT22;4013;49.744;8.118;2023-05-14T01:56:13;10.60;99.90
7936;DHT22;4013;49.744;8.118;2023-05-14T01:58:40;10.70;99.90
7936;DHT22;4013;49.744;8.118;2023-05-14T02:01:07;10.70;99.90
7936;DHT22;4013;49.744;8.118;2023-05-14T02:03:34;10.70;99.90
7936;DHT22;4013;49.744;8.118;2023-05-14T02:06:01;10.50;99.90
7936;DHT22;4013;49.744;8.118;2023-05-14T02:08:28;10.50;99.90
7936;DHT22;4013;49.744;8.118;2023-05-14T02:10:56;10.50;99.90
7936;DHT22;4013;49.744;8.118;2023-05-14T02:13:24;10.40;99.90
7936;DHT22;4013;49.744;8.118;2023-05-14T02:15:51;10.40;99.90
7936;DHT22;4013;49.744;8.118;2023-05-14T02:18:18;10.40;99.90
7936;DHT22;4013;49.744;8.118;2023-05-14T02:20:45;10.30;99.90
7936;DHT22;4013;49.744;8.118;2023-05-14T02:23:12;10.30;99.90
7936;DHT22;4013;49.744;8.118;2023-05-14T02:25:39;10.20;99.90
7936;DHT22;4013;49.744;8.118;2023-05-14T02:28:07;10.20;99.90
7936;DHT22;4013;49.744;8.118;2023-05-14T02:30:36;10.20;99.90
7936;DHT22;4013;49.744;8.118;2023-05-14T02:33:03;10.20;99.90
7936;DHT22;4013;49.744;8.118;2023-05-14T02:35:30;10.10;99.90
7936;DHT22;4013;49.744;8.118;2023-05-14T02:37:57;10.10;99.90
7936;DHT22;4013;49.744;8.118;2023-05-14T02:40:24;10.30;99.90
7936;DHT22;4013;49.744;8.118;2023-05-14T02:42:51;10.20;99.90
7936;DHT22;4013;49.744;8.118;2023-05-14T02:45:20;10.20;99.90
7936;DHT22;4013;49.744;8.118;2023-05-14T02:47:47;10.30;99.90
7936;DHT22;4013;49.744;8.118;2023-05-14T02:50:14;10.30;99.90
7936;DHT22;4013;49.744;8.118;2023-05-14T02:52:41;10.40;99.90
7936;DHT22;4013;49.744;8.118;2023-05-14T02:55:08;10.40;99.90
7936;DHT22;4013;49.744;8.118;2023-05-14T02:57:36;10.30;99.90
7936;DHT22;4013;49.744;8.118;2023-05-14T03:00:04;10.30;99.90
7936;DHT22;4013;49.744;8.118;2023-05-14T03:02:32;10.30;99.90
7936;DHT22;4013;49.744;8.118;2023-05-14T03:05:00;10.40;99.90
7936;DHT22;4013;49.744;8.118;2023-05-14T03:07:27;10.40;99.90
7936;DHT22;4013;49.744;8.118;2023-05-14T03:09:54;10.50;99.90
7936;DHT22;4013;49.744;8.118;2023-05-14T03:12:21;10.50;99.90
7936;DHT22;4013;49.744;8.118;2023-05-14T03:14:48;10.50;99.90
7936;DHT22;4013;49.744;8.118;2023-05-14T03:17:15;10.50;99.90
7936;DHT22;4013;49.744;8.118;2023-05-14T03:19:43;10.40;99.90
7936;DHT22;4013;49.744;8.118;2023-05-14T03:22:10;10.30;99.90
7936;DHT22;4013;49.744;8.118;2023-05-14T03:24:38;10.30;99.90
7936;DHT22;4013;49.744;8.118;2023-05-14T03:27:05;10.40;99.90
7936;DHT22;4013;49.744;8.118;2023-05-14T03:29:32;10.30;99.90
7936;DHT22;4013;49.744;8.118;2023-05-14T03:31:59;10.30;99.90
7936;DHT22;4013;49.744;8.118;2023-05-14T03:34:26;10.30;99.90
7936;DHT22;4013;49.744;8.118;2023-05-14T03:36:55;10.20;99.90
7936;DHT22;4013;49.744;8.118;2023-05-14T03:39:22;10.20;99.90
7936;DHT22;4013;49.744;8.118;2023-05-14T03:41:49;10.30;99.90
7936;DHT22;4013;49.744;8.118;2023-05-14T03:44:16;10.30;99.90
7936;DHT22;4013;49.744;8.118;2023-05-14T03:46:43;10.30;99.90
7936;DHT22;4013;49.744;8.118;2023-05-14T03:49:09;10.30;99.90
7936;DHT22;4013;49.744;8.118;2023-05-14T03:51:36;10.30;99.90
7936;DHT22;4013;49.744;8.118;2023-05-14T03:54:05;10.20;99.90
7936;DHT22;4013;49.744;8.118;2023-05-14T03:56:32;10.00;99.90
7936;DHT22;4013;49.744;8.118;2023-05-14T03:58:59;10.00;99.90
7936;DHT22;4013;49.744;8.118;2023-05-14T04:01:26;10.10;99.90
7936;DHT22;4013;49.744;8.118;2023-05-14T04:03:53;10.00;99.90
7936;DHT22;4013;49.744;8.118;2023-05-14T04:06:20;9.80;99.90
7936;DHT22;4013;49.744;8.118;2023-05-14T04:08:47;9.70;99.90
7936;DHT22;4013;49.744;8.118;2023-05-14T04:11:15;9.70;99.90
7936;DHT22;4013;49.744;8.118;2023-05-14T04:13:42;9.60;99.90
7936;DHT22;4013;49.744;8.118;2023-05-14T04:16:09;9.50;99.90
7936;DHT22;4013;49.744;8.118;2023-05-14T04:18:36;9.70;99.90
7936;DHT22;4013;49.744;8.118;2023-05-14T04:21:03;9.80;99.90
7936;DHT22;4013;49.744;8.118;2023-05-14T04:23:30;9.90;99.90
7936;DHT22;4013;49.744;8.118;2023-05-14T04:25:59;9.90;99.90
7936;DHT22;4013;49.744;8.118;2023-05-14T04:28:27;10.00;99.90
7936;DHT22;4013;49.744;8.118;2023-05-14T04:30:55;10.10;99.90
7936;DHT22;4013;49.744;8.118;2023-05-14T04:33:22;10.20;99.90
7936;DHT22;4013;49.744;8.118;2023-05-14T04:35:50;10.30;99.90
7936;DHT22;4013;49.744;8.118;2023-05-14T04:38:17;10.40;99.90
7936;DHT22;4013;49.744;8.118;2023-05-14T04:40:44;10.40;99.90
7936;DHT22;4013;49.744;8.118;2023-05-14T04:43:11;10.40;99.90
7936;DHT22;4013;49.744;8.118;2023-05-14T04:45:39;10.50;99.90
7936;DHT22;4013;49.744;8.118;2023-05-14T04:48:07;10.70;99.90
7936;DHT22;4013;49.744;8.118;2023-05-14T04:50:34;10.90;99.90
7936;DHT22;4013;49.744;8.118;2023-05-14T04:53:01;11.00;99.90
7936;DHT22;4013;49.744;8.118;2023-05-14T04:55:28;10.80;99.90
7936;DHT22;4013;49.744;8.118;2023-05-14T04:57:55;10.80;99.90
7936;DHT22;4013;49.744;8.118;2023-05-14T05:00:22;10.80;99.90
7936;DHT22;4013;49.744;8.118;2023-05-14T05:02:50;10.80;99.90
7936;DHT22;4013;49.744;8.118;2023-05-14T05:05:17;10.80;99.90
7936;DHT22;4013;49.744;8.118;2023-05-14T05:07:45;10.90;99.90
7936;DHT22;4013;49.744;8.118;2023-05-14T05:10:12;10.90;99.90
7936;DHT22;4013;49.744;8.118;2023-05-14T05:12:40;11.10;99.90
7936;DHT22;4013;49.744;8.118;2023-05-14T05:15:07;11.10;99.90
7936;DHT22;4013;49.744;8.118;2023-05-14T05:17:35;11.20;99.90
7936;DHT22;4013;49.744;8.118;2023-05-14T05:20:05;11.30;99.90
7936;DHT22;4013;49.744;8.118;2023-05-14T05:22:34;11.30;99.90
7936;DHT22;4013;49.744;8.118;2023-05-14T05:25:01;11.40;99.90
7936;DHT22;4013;49.744;8.118;2023-05-14T05:27:30;11.30;99.90
7936;DHT22;4013;49.744;8.118;2023-05-14T05:29:57;11.30;99.90
7936;DHT22;4013;49.744;8.118;2023-05-14T05:32:24;11.30;99.90
7936;DHT22;4013;49.744;8.118;2023-05-14T05:34:51;11.40;99.90
7936;DHT22;4013;49.744;8.118;2023-05-14T05:37:19;11.50;99.90
7936;DHT22;4013;49.744;8.118;2023-05-14T05:39:46;11.50;99.90
7936;DHT22;4013;49.744;8.118;2023-05-14T05:42:16;11.50;99.90
7936;DHT22;4013;49.744;8.118;2023-05-14T05:44:43;11.50;99.90
7936;DHT22;4013;49.744;8.118;2023-05-14T05:47:12;11.60;99.90
7936;DHT22;4013;49.744;8.118;2023-05-14T05:49:39;11.70;99.90
7936;DHT22;4013;49.744;8.118;2023-05-14T05:52:06;11.70;99.90
7936;DHT22;4013;49.744;8.118;2023-05-14T05:54:34;11.80;99.90
7936;DHT22;4013;49.744;8.118;2023-05-14T05:57:01;12.00;99.90
7936;DHT22;4013;49.744;8.118;2023-05-14T05:59:28;12.20;99.90
7936;DHT22;4013;49.744;8.118;2023-05-14T06:01:55;12.40;99.90
7936;DHT22;4013;49.744;8.118;2023-05-14T06:04:22;12.60;99.90
7936;DHT22;4013;49.744;8.118;2023-05-14T06:06:49;12.60;99.90
7936;DHT22;4013;49.744;8.118;2023-05-14T06:09:16;12.70;99.90
7936;DHT22;4013;49.744;8.118;2023-05-14T06:11:44;12.80;99.90
7936;DHT22;4013;49.744;8.118;2023-05-14T06:14:11;12.90;99.90
7936;DHT22;4013;49.744;8.118;2023-05-14T06:16:38;13.00;99.90
7936;DHT22;4013;49.744;8.118;2023-05-14T06:19:05;13.00;99.90
7936;DHT22;4013;49.744;8.118;2023-05-14T06:21:33;13.00;99.90
7936;DHT22;4013;49.744;8.118;2023-05-14T06:24:00;13.00;99.90
7936;DHT22;4013;49.744;8.118;2023-05-14T06:26:27;13.20;99.90
7936;DHT22;4013;49.744;8.118;2023-05-14T06:28:55;13.40;99.90
7936;DHT22;4013;49.744;8.118;2023-05-14T06:31:22;13.50;99.90
7936;DHT22;4013;49.744;8.118;2023-05-14T06:33:49;13.50;99.90
7936;DHT22;4013;49.744;8.118;2023-05-14T06:36:16;13.70;99.90
7936;DHT22;4013;49.744;8.118;2023-05-14T06:38:43;13.80;99.90
7936;DHT22;4013;49.744;8.118;2023-05-14T06:41:10;14.00;99.90
7936;DHT22;4013;49.744;8.118;2023-05-14T06:43:37;14.10;99.90
7936;DHT22;4013;49.744;8.118;2023-05-14T06:46:05;14.20;99.90
7936;DHT22;4013;49.744;8.118;2023-05-14T06:48:32;14.30;99.90
7936;DHT22;4013;49.744;8.118;2023-05-14T06:50:59;14.40;99.90
7936;DHT22;4013;49.744;8.118;2023-05-14T06:53:27;14.50;99.90
7936;DHT22;4013;49.744;8.118;2023-05-14T06:55:54;14.50;99.90
7936;DHT22;4013;49.744;8.118;2023-05-14T06:58:22;14.60;99.90
7936;DHT22;4013;49.744;8.118;2023-05-14T07:00:49;14.70;99.90
7936;DHT22;4013;49.744;8.118;2023-05-14T07:03:17;14.70;99.90
7936;DHT22;4013;49.744;8.118;2023-05-14T07:05:44;14.70;99.90
7936;DHT22;4013;49.744;8.118;2023-05-14T07:08:11;14.80;99.90
7936;DHT22;4013;49.744;8.118;2023-05-14T07:10:38;14.90;99.90
7936;DHT22;4013;49.744;8.118;2023-05-14T07:13:06;14.90;99.90
7936;DHT22;4013;49.744;8.118;2023-05-14T07:15:34;14.90;99.90
7936;DHT22;4013;49.744;8.118;2023-05-14T07:18:01;14.90;99.90
7936;DHT22;4013;49.744;8.118;2023-05-14T07:20:29;14.80;99.90
7936;DHT22;4013;49.744;8.118;2023-05-14T07:22:56;14.70;99.90
7936;DHT22;4013;49.744;8.118;2023-05-14T07:25:23;14.70;99.90
7936;DHT22;4013;49.744;8.118;2023-05-14T07:27:50;14.80;99.90
7936;DHT22;4013;49.744;8.118;2023-05-14T07:30:17;14.90;99.90
7936;DHT22;4013;49.744;8.118;2023-05-14T07:32:44;14.90;99.90
7936;DHT22;4013;49.744;8.118;2023-05-14T07:35:11;14.80;99.90
7936;DHT22;4013;49.744;8.118;2023-05-14T07:37:39;14.90;99.90
7936;DHT22;4013;49.744;8.118;2023-05-14T07:40:08;14.90;99.90
7936;DHT22;4013;49.744;8.118;2023-05-14T07:42:35;15.00;99.90
7936;DHT22;4013;49.744;8.118;2023-05-14T07:45:03;15.20;99.90
7936;DHT22;4013;49.744;8.118;2023-05-14T07:47:30;15.00;99.90
7936;DHT22;4013;49.744;8.118;2023-05-14T07:49:57;15.10;99.90
7936;DHT22;4013;49.744;8.118;2023-05-14T07:52:24;15.20;99.90
7936;DHT22;4013;49.744;8.118;2023-05-14T07:54:52;15.30;99.90
7936;DHT22;4013;49.744;8.118;2023-05-14T07:57:19;15.50;99.90
7936;DHT22;4013;49.744;8.118;2023-05-14T07:59:47;15.50;99.90
7936;DHT22;4013;49.744;8.118;2023-05-14T08:02:14;15.60;99.90
7936;DHT22;4013;49.744;8.118;2023-05-14T08:04:42;15.60;99.90
7936;DHT22;4013;49.744;8.118;2023-05-14T08:07:09;15.80;99.90
7936;DHT22;4013;49.744;8.118;2023-05-14T08:09:36;15.80;99.90
7936;DHT22;4013;49.744;8.118;2023-05-14T08:12:05;15.90;99.90
7936;DHT22;4013;49.744;8.118;2023-05-14T08:14:33;16.00;99.90
7936;DHT22;4013;49.744;8.118;2023-05-14T08:16:59;16.00;99.90
7936;DHT22;4013;49.744;8.118;2023-05-14T08:19:27;16.00;99.90
7936;DHT22;4013;49.744;8.118;2023-05-14T08:21:54;15.90;99.90
7936;DHT22;4013;49.744;8.118;2023-05-14T08:24:21;16.00;99.90
7936;DHT22;4013;49.744;8.118;2023-05-14T08:26:48;15.90;99.90
7936;DHT22;4013;49.744;8.118;2023-05-14T08:29:16;15.90;99.90
7936;DHT22;4013;49.744;8.118;2023-05-14T08:31:43;15.90;99.90
7936;DHT22;4013;49.744;8.118;2023-05-14T08:34:10;16.00;99.90
7936;DHT22;4013;49.744;8.118;2023-05-14T08:36:38;16.10;99.90
7936;DHT22;4013;49.744;8.118;2023-05-14T08:39:05;16.20;99.90
7936;DHT22;4013;49.744;8.118;2023-05-14T08:41:33;16.20;99.90
7936;DHT22;4013;49.744;8.118;2023-05-14T08:44:05;16.20;99.90
7936;DHT22;4013;49.744;8.118;2023-05-14T08:46:36;16.30;99.90
7936;DHT22;4013;49.744;8.118;2023-05-14T08:49:11;16.20;99.90
7936;DHT22;4013;49.744;8.118;2023-05-14T08:51:41;16.20;99.90
7936;DHT22;4013;49.744;8.118;2023-05-14T08:54:09;16.20;99.90
7936;DHT22;4013;49.744;8.118;2023-05-14T08:56:39;16.20;99.90
7936;DHT22;4013;49.744;8.118;2023-05-14T08:59:07;16.20;99.90
7936;DHT22;4013;49.744;8.118;2023-05-14T09:01:36;16.40;99.90
7936;DHT22;4013;49.744;8.118;2023-05-14T09:04:05;16.40;99.90
7936;DHT22;4013;49.744;8.118;2023-05-14T09:06:34;16.40;99.90
7936;DHT22;4013;49.744;8.118;2023-05-14T09:09:01;16.60;99.90
7936;DHT22;4013;49.744;8.118;2023-05-14T09:11:28;16.60;99.90
7936;DHT22;4013;49.744;8.118;2023-05-14T09:13:55;16.60;99.90
7936;DHT22;4013;49.744;8.118;2023-05-14T09:16:23;16.50;99.90
7936;DHT22;4013;49.744;8.118;2023-05-14T09:18:53;16.50;99.90
7936;DHT22;4013;49.744;8.118;2023-05-14T09:21:20;16.40;99.90
7936;DHT22;4013;49.744;8.118;2023-05-14T09:23:52;16.40;99.90
7936;DHT22;4013;49.744;8.118;2023-05-14T09:26:22;16.30;99.90
7936;DHT22;4013;49.744;8.118;2023-05-14T09:28:52;16.40;99.90
7936;DHT22;4013;49.744;8.118;2023-05-14T09:31:19;16.50;99.90
7936;DHT22;4013;49.744;8.118;2023-05-14T09:33:49;16.70;99.90
7936;DHT22;4013;49.744;8.118;2023-05-14T09:36:18;17.00;99.90
7936;DHT22;4013;49.744;8.118;2023-05-14T09:38:45;17.30;99.90
7936;DHT22;4013;49.744;8.118;2023-05-14T09:41:12;17.30;99.90
7936;DHT22;4013;49.744;8.118;2023-05-14T09:43:39;17.10;99.90
7936;DHT22;4013;49.744;8.118;2023-05-14T09:46:06;17.00;99.90
7936;DHT22;4013;49.744;8.118;2023-05-14T09:48:33;16.90;99.90
7936;DHT22;4013;49.744;8.118;2023-05-14T09:51:00;16.70;99.90
7936;DHT22;4013;49.744;8.118;2023-05-14T09:53:29;16.70;99.90
7936;DHT22;4013;49.744;8.118;2023-05-14T09:55:56;16.50;99.90
7936;DHT22;4013;49.744;8.118;2023-05-14T09:58:23;16.50;99.90
7936;DHT22;4013;49.744;8.118;2023-05-14T10:00:51;16.80;99.90
7936;DHT22;4013;49.744;8.118;2023-05-14T10:03:20;17.00;99.90
7936;DHT22;4013;49.744;8.118;2023-05-14T10:05:48;17.20;99.90
7936;DHT22;4013;49.744;8.118;2023-05-14T10:08:21;17.20;99.90
7936;DHT22;4013;49.744;8.118;2023-05-14T10:10:51;17.10;99.90
7936;DHT22;4013;49.744;8.118;2023-05-14T10:13:21;17.00;99.90
7936;DHT22;4013;49.744;8.118;2023-05-14T10:15:51;17.10;99.90
7936;DHT22;4013;49.744;8.118;2023-05-14T10:18:22;17.20;99.90
7936;DHT22;4013;49.744;8.118;2023-05-14T10:20:56;17.20;99.90
7936;DHT22;4013;49.744;8.118;2023-05-14T10:23:26;17.20;99.90
7936;DHT22;4013;49.744;8.118;2023-05-14T10:25:55;17.20;99.90
7936;DHT22;4013;49.744;8.118;2023-05-14T10:28:22;17.10;99.90
7936;DHT22;4013;49.744;8.118;2023-05-14T10:30:49;17.00;99.90
7936;DHT22;4013;49.744;8.118;2023-05-14T10:33:16;17.00;99.90
7936;DHT22;4013;49.744;8.118;2023-05-14T10:35:57;17.20;99.90
7936;DHT22;4013;49.744;8.118;2023-05-14T10:38:26;17.40;99.90
7936;DHT22;4013;49.744;8.118;2023-05-14T10:40:58;17.50;99.90
7936;DHT22;4013;49.744;8.118;2023-05-14T10:43:26;17.40;99.90
7936;DHT22;4013;49.744;8.118;2023-05-14T10:45:56;17.30;99.90
7936;DHT22;4013;49.744;8.118;2023-05-14T10:48:23;17.30;99.90
7936;DHT22;4013;49.744;8.118;2023-05-14T10:50:51;17.30;99.90
7936;DHT22;4013;49.744;8.118;2023-05-14T10:53:18;17.20;99.90
7936;DHT22;4013;49.744;8.118;2023-05-14T10:55:46;17.30;99.90
7936;DHT22;4013;49.744;8.118;2023-05-14T10:58:15;17.20;99.90
7936;DHT22;4013;49.744;8.118;2023-05-14T11:00:46;17.20;99.90
7936;DHT22;4013;49.744;8.118;2023-05-14T11:03:14;17.20;99.90
7936;DHT22;4013;49.744;8.118;2023-05-14T11:05:41;17.20;99.90
7936;DHT22;4013;49.744;8.118;2023-05-14T11:08:11;17.40;99.90
7936;DHT22;4013;49.744;8.118;2023-05-14T11:10:38;17.60;99.90
7936;DHT22;4013;49.744;8.118;2023-05-14T11:13:06;17.80;99.90
7936;DHT22;4013;49.744;8.118;2023-05-14T11:15:34;17.80;99.90
7936;DHT22;4013;49.744;8.118;2023-05-14T11:18:01;17.80;99.90
7936;DHT22;4013;49.744;8.118;2023-05-14T11:20:28;17.90;99.90
7936;DHT22;4013;49.744;8.118;2023-05-14T11:22:57;17.90;99.90
7936;DHT22;4013;49.744;8.118;2023-05-14T11:25:24;17.90;99.90
7936;DHT22;4013;49.744;8.118;2023-05-14T11:27:51;17.80;99.90
7936;DHT22;4013;49.744;8.118;2023-05-14T11:30:23;17.90;99.90
7936;DHT22;4013;49.744;8.118;2023-05-14T11:32:51;18.00;99.90
7936;DHT22;4013;49.744;8.118;2023-05-14T11:35:18;18.00;99.90
7936;DHT22;4013;49.744;8.118;2023-05-14T11:37:49;18.00;99.90
7936;DHT22;4013;49.744;8.118;2023-05-14T11:40:17;17.90;99.90
7936;DHT22;4013;49.744;8.118;2023-05-14T11:42:44;17.90;99.90
7936;DHT22;4013;49.744;8.118;2023-05-14T11:45:11;17.90;99.90
7936;DHT22;4013;49.744;8.118;2023-05-14T11:47:40;17.90;99.90
7936;DHT22;4013;49.744;8.118;2023-05-14T11:50:09;18.00;99.90
7936;DHT22;4013;49.744;8.118;2023-05-14T11:52:37;18.00;99.90
7936;DHT22;4013;49.744;8.118;2023-05-14T11:55:06;17.90;99.90
7936;DHT22;4013;49.744;8.118;2023-05-14T11:57:35;17.90;99.90
7936;DHT22;4013;49.744;8.118;2023-05-14T12:00:06;17.90;99.90
7936;DHT22;4013;49.744;8.118;2023-05-14T12:02:33;17.90;99.90
7936;DHT22;4013;49.744;8.118;2023-05-14T12:05:01;18.00;99.90
7936;DHT22;4013;49.744;8.118;2023-05-14T12:07:30;18.00;99.90
7936;DHT22;4013;49.744;8.118;2023-05-14T12:10:00;18.10;99.90
7936;DHT22;4013;49.744;8.118;2023-05-14T12:12:33;18.30;99.90
7936;DHT22;4013;49.744;8.118;2023-05-14T12:15:00;18.50;99.90
7936;DHT22;4013;49.744;8.118;2023-05-14T12:17:28;18.50;99.90
7936;DHT22;4013;49.744;8.118;2023-05-14T12:19:56;18.50;99.90
7936;DHT22;4013;49.744;8.118;2023-05-14T12:22:23;18.40;99.90
7936;DHT22;4013;49.744;8.118;2023-05-14T12:24:55;18.20;99.90
7936;DHT22;4013;49.744;8.118;2023-05-14T12:27:23;18.20;99.90
7936;DHT22;4013;49.744;8.118;2023-05-14T12:29:57;18.20;99.90
7936;DHT22;4013;49.744;8.118;2023-05-14T12:32:24;18.30;99.90
7936;DHT22;4013;49.744;8.118;2023-05-14T12:34:51;18.40;99.90
7936;DHT22;4013;49.744;8.118;2023-05-14T12:37:18;18.40;99.90
7936;DHT22;4013;49.744;8.118;2023-05-14T12:39:45;18.40;99.90
7936;DHT22;4013;49.744;8.118;2023-05-14T12:42:15;18.40;99.90
7936;DHT22;4013;49.744;8.118;2023-05-14T12:44:42;18.40;99.90
7936;DHT22;4013;49.744;8.118;2023-05-14T12:47:09;18.50;99.90
7936;DHT22;4013;49.744;8.118;2023-05-14T12:49:36;18.30;99.90
7936;DHT22;4013;49.744;8.118;2023-05-14T12:52:03;18.10;99.90
7936;DHT22;4013;49.744;8.118;2023-05-14T12:54:31;18.30;99.90
7936;DHT22;4013;49.744;8.118;2023-05-14T12:56:58;18.40;99.90
7936;DHT22;4013;49.744;8.118;2023-05-14T12:59:26;18.40;99.90
7936;DHT22;4013;49.744;8.118;2023-05-14T13:01:53;18.50;99.90
7936;DHT22;4013;49.744;8.118;2023-05-14T13:04:20;18.70;99.90
7936;DHT22;4013;49.744;8.118;2023-05-14T13:06:47;18.70;99.90
7936;DHT22;4013;49.744;8.118;2023-05-14T13:09:14;18.60;99.90
7936;DHT22;4013;49.744;8.118;2023-05-14T13:11:41;18.60;99.90
7936;DHT22;4013;49.744;8.118;2023-05-14T13:14:08;18.60;99.90
7936;DHT22;4013;49.744;8.118;2023-05-14T13:16:36;18.70;99.90
7936;DHT22;4013;49.744;8.118;2023-05-14T13:19:03;18.80;99.90
7936;DHT22;4013;49.744;8.118;2023-05-14T13:21:30;18.80;99.90
7936;DHT22;4013;49.744;8.118;2023-05-14T13:23:57;18.70;99.90
7936;DHT22;4013;49.744;8.118;2023-05-14T13:26:24;18.80;99.90
7936;DHT22;4013;49.744;8.118;2023-05-14T13:28:52;18.90;99.90
7936;DHT22;4013;49.744;8.118;2023-05-14T13:31:19;18.90;99.90
7936;DHT22;4013;49.744;8.118;2023-05-14T13:33:48;19.00;99.90
7936;DHT22;4013;49.744;8.118;2023-05-14T13:36:14;19.00;99.90
7936;DHT22;4013;49.744;8.118;2023-05-14T13:38:41;19.10;99.90
7936;DHT22;4013;49.744;8.118;2023-05-14T13:41:10;19.20;99.90
7936;DHT22;4013;49.744;8.118;2023-05-14T13:43:37;19.20;99.90
7936;DHT22;4013;49.744;8.118;2023-05-14T13:46:04;19.30;99.90
7936;DHT22;4013;49.744;8.118;2023-05-14T13:48:32;19.40;99.90
7936;DHT22;4013;49.744;8.118;2023-05-14T13:51:00;19.50;99.90
7936;DHT22;4013;49.744;8.118;2023-05-14T13:53:27;19.50;99.90
7936;DHT22;4013;49.744;8.118;2023-05-14T13:55:54;19.50;99.90
7936;DHT22;4013;49.744;8.118;2023-05-14T13:58:23;19.40;99.90
7936;DHT22;4013;49.744;8.118;2023-05-14T14:00:50;19.50;99.90
7936;DHT22;4013;49.744;8.118;2023-05-14T14:03:17;19.40;99.90
7936;DHT22;4013;49.744;8.118;2023-05-14T14:05:44;19.30;99.90
7936;DHT22;4013;49.744;8.118;2023-05-14T14:08:12;19.30;99.90
7936;DHT22;4013;49.744;8.118;2023-05-14T14:10:40;19.10;99.90
7936;DHT22;4013;49.744;8.118;2023-05-14T14:13:07;19.10;99.90
7936;DHT22;4013;49.744;8.118;2023-05-14T14:15:34;19.30;99.90
7936;DHT22;4013;49.744;8.118;2023-05-14T14:18:01;19.50;99.90
7936;DHT22;4013;49.744;8.118;2023-05-14T14:20:28;19.50;99.90
7936;DHT22;4013;49.744;8.118;2023-05-14T14:22:56;19.60;99.90
7936;DHT22;4013;49.744;8.118;2023-05-14T14:25:25;19.70;99.90
7936;DHT22;4013;49.744;8.118;2023-05-14T14:27:52;19.60;99.90
7936;DHT22;4013;49.744;8.118;2023-05-14T14:30:19;19.50;99.90
7936;DHT22;4013;49.744;8.118;2023-05-14T14:32:46;19.50;99.90
7936;DHT22;4013;49.744;8.118;2023-05-14T14:35:15;19.50;99.90
7936;DHT22;4013;49.744;8.118;2023-05-14T14:37:43;19.40;99.90
7936;DHT22;4013;49.744;8.118;2023-05-14T14:40:14;19.20;99.90
7936;DHT22;4013;49.744;8.118;2023-05-14T14:42:42;19.10;99.90
7936;DHT22;4013;49.744;8.118;2023-05-14T14:45:10;19.10;99.90
7936;DHT22;4013;49.744;8.118;2023-05-14T14:47:42;19.20;99.90
7936;DHT22;4013;49.744;8.118;2023-05-14T14:50:09;19.30;99.90
7936;DHT22;4013;49.744;8.118;2023-05-14T14:52:37;19.50;99.90
7936;DHT22;4013;49.744;8.118;2023-05-14T14:55:05;19.70;99.90
7936;DHT22;4013;49.744;8.118;2023-05-14T14:57:32;19.80;99.90
7936;DHT22;4013;49.744;8.118;2023-05-14T15:00:01;19.80;99.90
7936;DHT22;4013;49.744;8.118;2023-05-14T15:02:28;19.50;99.90
7936;DHT22;4013;49.744;8.118;2023-05-14T15:04:55;19.50;99.90
7936;DHT22;4013;49.744;8.118;2023-05-14T15:07:22;19.40;99.90
7936;DHT22;4013;49.744;8.118;2023-05-14T15:09:49;19.20;99.90
7936;DHT22;4013;49.744;8.118;2023-05-14T15:12:16;19.20;99.90
7936;DHT22;4013;49.744;8.118;2023-05-14T15:14:43;19.10;99.90
7936;DHT22;4013;49.744;8.118;2023-05-14T15:17:11;19.00;99.90
7936;DHT22;4013;49.744;8.118;2023-05-14T15:19:38;18.90;99.90
7936;DHT22;4013;49.744;8.118;2023-05-14T15:22:05;18.90;99.90
7936;DHT22;4013;49.744;8.118;2023-05-14T15:24:32;18.80;99.90
7936;DHT22;4013;49.744;8.118;2023-05-14T15:26:59;18.80;99.90
7936;DHT22;4013;49.744;8.118;2023-05-14T15:29:25;18.80;99.90
7936;DHT22;4013;49.744;8.118;2023-05-14T15:31:53;18.90;99.90
7936;DHT22;4013;49.744;8.118;2023-05-14T15:34:21;18.90;99.90
7936;DHT22;4013;49.744;8.118;2023-05-14T15:36:48;19.00;99.90
7936;DHT22;4013;49.744;8.118;2023-05-14T15:39:15;19.00;99.90
7936;DHT22;4013;49.744;8.118;2023-05-14T15:41:42;19.00;99.90
7936;DHT22;4013;49.744;8.118;2023-05-14T15:44:09;19.00;99.90
7936;DHT22;4013;49.744;8.118;2023-05-14T15:46:36;19.00;99.90
7936;DHT22;4013;49.744;8.118;2023-05-14T15:49:03;19.00;99.90
7936;DHT22;4013;49.744;8.118;2023-05-14T15:51:32;19.00;99.90
7936;DHT22;4013;49.744;8.118;2023-05-14T15:53:59;19.00;99.90
7936;DHT22;4013;49.744;8.118;2023-05-14T15:56:26;18.90;99.90
7936;DHT22;4013;49.744;8.118;2023-05-14T15:58:53;18.90;99.90
7936;DHT22;4013;49.744;8.118;2023-05-14T16:01:20;19.00;99.90
7936;DHT22;4013;49.744;8.118;2023-05-14T16:03:47;19.00;99.90
7936;DHT22;4013;49.744;8.118;2023-05-14T16:06:14;19.10;99.90